Auburn, CA

4:43 AM PST on February 28, 2015 (GMT -0800)
Grass Valley | Change Station
CLOSE
Current Station
Airport
Location: Grass Valley,
Elevation: 3153 ft
Nearby Weather Stations

Elev 3153 ft 39.22 °N, 121.00 °W | Updated 3 minutes ago

Overcast
Overcast
37 °F
Feels Like 33 °F
N
6
Wind Variable Wind from SE

Today
High -- | Low -- °F
--% Chance of Precip.
Yesterday
High -- | Low -- °F
Precip. -- in
6:38 AM 5:55 PM
Waxing Gibbous, 77% visible
Pressure 29.67 in
Visibility 3.0 miles
Clouds Mostly Cloudy 800 ft
Overcast 1500 ft
Windchill 33 °F
Dew Point 37 °F
Humidity 100%
Rainfall 0.25 in
Snow Depth Not available.
UV 0 out of 12
Pollen 8.00 out of 12
Air Quality Not available.
Flu Activity Not available.
METAR KGOO 281240Z AUTO 13005KT 3SM BKN008 OVC015 03/03 A2967 RMK AO1 P0002

More Conditions Fewer Conditions

Pressure 29.67 in
Visibility 3.0 miles
Clouds Mostly Cloudy 800 ft
Overcast 1500 ft
Windchill 33 °F
Dew Point 37 °F
Humidity 100%
Rainfall 0.25 in
Snow Depth Not available.
UV 0 out of 12
Pollen 8.00 out of 12
Air Quality Not available.
Flu Activity Not available.
METAR KGOO 281240Z AUTO 13005KT 3SM BKN008 OVC015 03/03 A2967 RMK AO1 P0002

More Conditions Fewer Conditions

10-Day Weather Forecast

Almanac

Astronomy

Feb. 28, 2015 Rise Set
Actual Time
Civil Twilight
Nautical Twilight
Astronomical Twilight
Moon
Length of Visible Light
Length of Day
Tomorrow will be .
, % of the Moon is Illuminated

Today's Extremes

State Highs State Lows

Community

WunderPhotos

Upload Photos

1,801,000 photos uploaded!

WunderBlogs® & News

Nearby

Air Quality

  Air Quality AQ Index Pollutant
Not available.

Snow Depth

Station Depth Elevation

Earthquake Activity

City Distance Mag. Time & Date
Minimum magnitude displayed is 2.5.

Coastal Water Temperatures

Place Temperature

Nearby Weather Stations